createdAt,value
2019-01-15T00:00:28.153Z,-5.56
2019-01-15T00:02:55.753Z,-5.43
2019-01-15T00:05:23.246Z,-5.50
2019-01-15T00:07:50.777Z,-5.55
2019-01-15T00:10:18.283Z,-5.68
2019-01-15T00:12:45.753Z,-5.48
2019-01-15T00:15:13.363Z,-5.64
2019-01-15T00:17:40.921Z,-5.75
2019-01-15T00:20:08.944Z,-5.73
2019-01-15T00:22:36.637Z,-5.72
2019-01-15T00:25:05.341Z,-5.85
2019-01-15T00:27:32.819Z,-5.87
2019-01-15T00:30:00.446Z,-5.71
2019-01-15T00:32:27.960Z,-5.72
2019-01-15T00:34:55.454Z,-5.76
2019-01-15T00:37:23.086Z,-5.62
2019-01-15T00:39:50.582Z,-5.74
2019-01-15T00:42:18.087Z,-5.74
2019-01-15T00:44:45.661Z,-5.63
2019-01-15T00:47:13.127Z,-5.63
2019-01-15T00:49:40.627Z,-5.69
2019-01-15T00:52:08.169Z,-5.73
2019-01-15T00:54:35.613Z,-5.77
2019-01-15T00:57:03.080Z,-5.81
2019-01-15T00:59:30.787Z,-5.84
2019-01-15T01:01:58.265Z,-5.76
2019-01-15T01:04:25.750Z,-5.76
2019-01-15T01:06:53.500Z,-5.84
2019-01-15T01:09:22.779Z,-5.90
2019-01-15T01:11:50.453Z,-5.94
2019-01-15T01:14:17.969Z,-5.89
2019-01-15T01:16:45.425Z,-5.96
2019-01-15T01:19:13.115Z,-6.03
2019-01-15T01:21:40.593Z,-6.05
2019-01-15T01:24:08.076Z,-6.12
2019-01-15T01:26:35.656Z,-6.16
2019-01-15T01:29:03.137Z,-5.87
2019-01-15T01:31:30.902Z,-5.89
2019-01-15T01:33:58.509Z,-6.06
2019-01-15T01:36:26.014Z,-6.11
2019-01-15T01:38:53.612Z,-6.17
2019-01-15T01:41:21.139Z,-6.29
2019-01-15T01:43:48.631Z,-6.45
2019-01-15T01:46:16.083Z,-6.50
2019-01-15T01:48:43.591Z,-6.42
2019-01-15T01:51:11.122Z,-6.50
2019-01-15T01:53:38.608Z,-6.50
2019-01-15T01:56:06.105Z,-6.70
2019-01-15T01:58:33.668Z,-6.64
2019-01-15T02:01:01.260Z,-6.67
2019-01-15T02:03:28.749Z,-6.52
2019-01-15T02:05:56.366Z,-6.41
2019-01-15T02:08:23.838Z,-6.22
2019-01-15T02:10:51.503Z,-5.97
2019-01-15T02:13:19.021Z,-5.93
2019-01-15T02:15:46.563Z,-5.73
2019-01-15T02:18:14.325Z,-5.46
2019-01-15T02:20:41.915Z,-5.62
2019-01-15T02:23:09.403Z,-5.43
2019-01-15T02:25:36.986Z,-5.74
2019-01-15T02:28:04.473Z,-5.94
2019-01-15T02:30:31.910Z,-6.44
2019-01-15T02:32:59.493Z,-7.15
2019-01-15T02:35:26.994Z,-7.54
2019-01-15T02:37:54.494Z,-7.59
2019-01-15T02:40:22.029Z,-7.83
2019-01-15T02:42:49.573Z,-7.86
2019-01-15T02:45:18.682Z,-7.85
2019-01-15T02:47:46.466Z,-7.74
2019-01-15T02:50:15.293Z,-7.25
2019-01-15T02:52:43.001Z,-7.41
2019-01-15T02:55:10.619Z,-7.49
2019-01-15T02:57:38.126Z,-7.55
2019-01-15T03:00:10.398Z,-7.63
2019-01-15T03:02:37.933Z,-7.60
2019-01-15T03:05:05.994Z,-7.65
2019-01-15T03:07:33.455Z,-7.61
2019-01-15T03:10:00.955Z,-7.68
2019-01-15T03:12:28.555Z,-7.64
2019-01-15T03:14:56.150Z,-7.62
2019-01-15T03:17:23.618Z,-7.69
2019-01-15T03:19:51.228Z,-7.52
2019-01-15T03:22:18.685Z,-7.50
2019-01-15T03:24:46.148Z,-7.50
2019-01-15T03:27:13.727Z,-7.53
2019-01-15T03:29:41.420Z,-7.59
2019-01-15T03:32:09.445Z,-7.58
2019-01-15T03:34:37.087Z,-7.59
2019-01-15T03:37:04.680Z,-7.66
2019-01-15T03:39:32.276Z,-7.72
2019-01-15T03:41:59.933Z,-7.74
2019-01-15T03:44:27.381Z,-7.63
2019-01-15T03:46:54.909Z,-7.67
2019-01-15T03:49:22.360Z,-7.82
2019-01-15T03:51:49.998Z,-7.93
2019-01-15T03:54:17.437Z,-7.95
2019-01-15T03:56:44.924Z,-8.07
2019-01-15T03:59:12.638Z,-8.11
2019-01-15T04:01:40.197Z,-8.12
2019-01-15T04:04:07.762Z,-8.15
2019-01-15T04:06:35.334Z,-8.10
2019-01-15T04:09:04.605Z,-8.24
2019-01-15T04:11:32.164Z,-8.16
2019-01-15T04:13:59.670Z,-8.27
2019-01-15T04:16:27.195Z,-8.18
2019-01-15T04:18:54.700Z,-8.24
2019-01-15T04:21:22.434Z,-7.90
2019-01-15T04:23:49.898Z,-7.91
2019-01-15T04:26:17.351Z,-8.17
2019-01-15T04:28:44.834Z,-8.11
2019-01-15T04:31:12.426Z,-8.17
2019-01-15T04:33:39.981Z,-8.16
2019-01-15T04:36:07.563Z,-8.13
2019-01-15T04:38:35.167Z,-8.25
2019-01-15T04:41:02.784Z,-8.31
2019-01-15T04:43:30.495Z,-8.32
2019-01-15T04:45:57.931Z,-8.07
2019-01-15T04:48:25.376Z,-7.91
2019-01-15T04:50:52.944Z,-7.90
2019-01-15T04:53:20.532Z,-7.88
2019-01-15T04:55:48.184Z,-7.91
2019-01-15T04:58:15.704Z,-7.91
2019-01-15T05:00:43.170Z,-7.92
2019-01-15T05:03:11.765Z,-7.94
2019-01-15T05:05:39.298Z,-7.96
2019-01-15T05:08:06.960Z,-7.97
2019-01-15T05:10:34.570Z,-7.91
2019-01-15T05:13:02.196Z,-7.83
2019-01-15T05:15:29.826Z,-7.84
2019-01-15T05:17:57.404Z,-7.73
2019-01-15T05:20:25.151Z,-7.48
2019-01-15T05:22:52.868Z,-7.15
2019-01-15T05:25:20.591Z,-6.83
2019-01-15T05:27:48.154Z,-6.24
2019-01-15T05:30:23.487Z,-6.22
2019-01-15T05:32:51.073Z,-6.19
2019-01-15T05:35:18.794Z,-6.11
2019-01-15T05:37:46.413Z,-6.07
2019-01-15T05:40:13.996Z,-5.87
2019-01-15T05:42:41.720Z,-5.83
2019-01-15T05:45:12.801Z,-5.68
2019-01-15T05:47:40.608Z,-5.65
2019-01-15T05:50:10.304Z,-5.58
2019-01-15T05:52:37.824Z,-5.01
2019-01-15T05:55:07.213Z,-5.07
2019-01-15T05:57:35.034Z,-5.25
2019-01-15T06:00:04.183Z,-5.33
2019-01-15T06:02:32.337Z,-5.22
2019-01-15T06:05:00.031Z,-5.26
2019-01-15T06:07:33.630Z,-5.36
2019-01-15T06:09:57.393Z,-5.13
2019-01-15T06:12:25.192Z,-4.79
2019-01-15T06:14:52.949Z,-4.98
2019-01-15T06:17:20.597Z,-4.97
2019-01-15T06:19:48.492Z,-4.84
2019-01-15T06:22:16.150Z,-4.71
2019-01-15T06:24:43.822Z,-4.60
2019-01-15T06:27:11.958Z,-4.33
2019-01-15T06:29:40.242Z,-3.97
2019-01-15T06:32:08.358Z,-3.82
2019-01-15T06:34:36.206Z,-3.98
2019-01-15T06:37:04.192Z,-4.01
2019-01-15T06:39:32.099Z,-3.81
2019-01-15T06:41:59.990Z,-3.53
2019-01-15T06:44:27.786Z,-3.20
2019-01-15T06:46:55.549Z,-3.29
2019-01-15T06:49:23.643Z,-3.44
2019-01-15T06:51:51.647Z,-3.80
2019-01-15T06:54:19.492Z,-4.23
2019-01-15T06:56:47.389Z,-4.43
2019-01-15T06:59:15.482Z,-4.61
2019-01-15T07:01:44.287Z,-4.73
2019-01-15T07:04:13.645Z,-4.69
2019-01-15T07:06:42.822Z,-4.37
2019-01-15T07:09:13.283Z,-4.01
2019-01-15T07:11:42.501Z,-2.89
2019-01-15T07:14:13.445Z,-1.75
2019-01-15T07:16:41.618Z,-0.88
2019-01-15T07:19:09.234Z,-0.37
2019-01-15T07:21:37.017Z,0.28
2019-01-15T07:24:04.757Z,-0.26
2019-01-15T07:26:32.264Z,-0.88
2019-01-15T07:28:59.783Z,-1.57
2019-01-15T07:31:27.432Z,-2.09
2019-01-15T07:33:55.032Z,-2.45
2019-01-15T07:36:22.982Z,-2.08
2019-01-15T07:38:50.606Z,-1.71
2019-01-15T07:41:18.222Z,-1.39
2019-01-15T07:43:45.762Z,-1.67
2019-01-15T07:46:13.272Z,-1.97
2019-01-15T07:48:40.831Z,-2.10
2019-01-15T07:51:08.580Z,-2.10
2019-01-15T07:53:36.147Z,-2.19
2019-01-15T07:56:03.638Z,-1.77
2019-01-15T07:58:31.199Z,-1.62
2019-01-15T08:00:58.685Z,-1.29
2019-01-15T08:03:26.211Z,-1.31
2019-01-15T08:13:16.243Z,-0.99
2019-01-15T08:15:43.870Z,-1.01
2019-01-15T08:18:11.487Z,-1.24
2019-01-15T08:20:39.220Z,-1.00
2019-01-15T08:23:06.873Z,-0.90
2019-01-15T08:25:34.499Z,-0.67
2019-01-15T08:28:02.165Z,-0.64
2019-01-15T08:30:32.572Z,-0.66
2019-01-15T08:33:00.209Z,-0.75
2019-01-15T08:35:27.715Z,-0.74
2019-01-15T08:37:55.553Z,-1.27
2019-01-15T08:40:23.240Z,-0.70
2019-01-15T08:42:51.173Z,-1.19
2019-01-15T08:45:19.169Z,-1.03
2019-01-15T08:47:52.368Z,-0.88
2019-01-15T08:50:22.453Z,-0.93
2019-01-15T08:52:50.195Z,-1.13
2019-01-15T08:55:18.002Z,-1.06
2019-01-15T08:57:45.813Z,-0.83
2019-01-15T09:00:13.715Z,-1.19
2019-01-15T09:02:41.728Z,-0.92
2019-01-15T09:05:09.937Z,-0.82
2019-01-15T09:07:37.923Z,-0.71
2019-01-15T09:10:08.321Z,-0.88
2019-01-15T09:12:36.602Z,-1.09
2019-01-15T09:15:05.775Z,-1.34
2019-01-15T09:17:33.447Z,-1.23
2019-01-15T09:20:01.002Z,-1.12
2019-01-15T09:22:28.548Z,-1.13
2019-01-15T09:24:56.205Z,-1.00
2019-01-15T09:27:23.960Z,-1.12
2019-01-15T09:29:51.712Z,-1.01
2019-01-15T10:07:04.824Z,-1.25
2019-01-15T10:09:33.471Z,-1.39
2019-01-15T10:12:10.758Z,-0.91
2019-01-15T10:14:41.397Z,-1.36
2019-01-15T10:17:09.739Z,-1.19
2019-01-15T10:19:37.758Z,-0.96
2019-01-15T10:22:06.639Z,-1.09
2019-01-15T10:24:34.380Z,-1.13
2019-01-15T10:27:02.075Z,-0.78
2019-01-15T10:29:29.973Z,-1.48
2019-01-15T10:32:44.125Z,-1.46
2019-01-15T10:35:20.544Z,-1.16
2019-01-15T10:37:49.046Z,-1.39
2019-01-15T10:40:16.520Z,-0.90
2019-01-15T10:42:44.097Z,-1.25
2019-01-15T10:45:11.870Z,-1.25
2019-01-15T10:47:39.378Z,-0.75
2019-01-15T10:50:07.649Z,-1.28
2019-01-15T10:52:35.303Z,-1.59
2019-01-15T10:55:03.618Z,-1.36
2019-01-15T10:57:31.102Z,-1.12
2019-01-15T10:59:58.599Z,-1.15
2019-01-15T11:02:26.175Z,-1.04
2019-01-15T11:04:53.705Z,-1.21
2019-01-15T11:07:21.288Z,-1.14
2019-01-15T11:09:48.873Z,-1.16
2019-01-15T11:12:16.556Z,-1.24
2019-01-15T11:14:44.554Z,-1.28
2019-01-15T11:17:12.166Z,-1.09
2019-01-15T11:19:40.060Z,-1.10
2019-01-15T11:22:07.800Z,-1.01
2019-01-15T11:24:35.616Z,-1.28
2019-01-15T11:27:03.338Z,-1.02
2019-01-15T11:29:31.319Z,-1.04
2019-01-15T11:31:59.207Z,-1.35
2019-01-15T11:34:26.855Z,-1.26
2019-01-15T11:36:54.579Z,-1.30
2019-01-15T11:39:22.301Z,-1.43
2019-01-15T11:41:50.521Z,-1.57
2019-01-15T11:44:19.039Z,-1.75
2019-01-15T11:46:46.987Z,-1.73
2019-01-15T11:49:14.728Z,-1.83
2019-01-15T11:51:42.365Z,-1.93
2019-01-15T11:54:10.193Z,-1.79
2019-01-15T11:56:37.699Z,-1.87
2019-01-15T11:59:05.200Z,-2.04
2019-01-15T12:01:42.421Z,-2.07
2019-01-15T12:04:35.540Z,-1.88
2019-01-15T12:07:21.383Z,-2.10
2019-01-15T12:10:07.589Z,-2.12
2019-01-15T12:12:53.547Z,-2.30
2019-01-15T12:15:53.128Z,-2.36
2019-01-15T12:18:38.580Z,-2.30
2019-01-15T12:21:24.529Z,-2.27
2019-01-15T12:24:20.597Z,-2.17
2019-01-15T12:27:13.652Z,-2.31
2019-01-15T12:29:53.175Z,-2.21
2019-01-15T12:32:49.163Z,-2.19
2019-01-15T12:35:36.785Z,-2.24
2019-01-15T12:38:26.980Z,-2.19
2019-01-15T12:41:16.755Z,-2.20
2019-01-15T12:43:59.603Z,-2.52
2019-01-15T12:46:45.704Z,-2.51
2019-01-15T12:49:31.690Z,-2.45
2019-01-15T12:52:17.702Z,-2.44
2019-01-15T12:55:07.484Z,-2.60
2019-01-15T12:57:57.784Z,-2.67
2019-01-15T13:00:44.154Z,-2.47
2019-01-15T13:03:29.995Z,-2.71
2019-01-15T13:06:28.868Z,-2.78
2019-01-15T13:09:14.698Z,-2.75
2019-01-15T13:11:57.718Z,-2.79
2019-01-15T13:14:43.957Z,-2.71
2019-01-15T13:17:28.192Z,-2.85
2019-01-15T13:20:06.716Z,-2.82
2019-01-15T13:22:56.831Z,-2.93
2019-01-15T13:25:50.098Z,-2.87
2019-01-15T13:28:36.101Z,-2.93
2019-01-15T13:31:35.813Z,-3.14
2019-01-15T13:34:21.470Z,-3.22
2019-01-15T13:37:17.888Z,-3.14
2019-01-15T13:40:11.193Z,-3.23
2019-01-15T13:43:04.361Z,-3.23
2019-01-15T13:45:51.587Z,-3.27
2019-01-15T13:48:37.330Z,-3.40
2019-01-15T13:51:33.090Z,-3.36
2019-01-15T13:54:19.105Z,-3.49
2019-01-15T13:57:06.302Z,-3.57
2019-01-15T13:59:56.571Z,-3.61
2019-01-15T14:02:43.652Z,-3.77
2019-01-15T14:05:29.347Z,-3.69
2019-01-15T14:08:25.143Z,-3.75
2019-01-15T14:11:15.125Z,-3.83
2019-01-15T14:14:05.934Z,-3.92
2019-01-15T14:16:50.109Z,-3.88
2019-01-15T14:19:43.399Z,-4.12
2019-01-15T14:22:35.843Z,-4.20
2019-01-15T14:25:33.305Z,-4.29
2019-01-15T14:28:20.497Z,-4.29
2019-01-15T14:31:25.561Z,-4.50
2019-01-15T14:34:12.708Z,-4.67
2019-01-15T14:36:58.799Z,-4.74
2019-01-15T14:39:45.017Z,-4.71
2019-01-15T14:42:47.043Z,-4.71
2019-01-15T14:45:33.250Z,-4.72
2019-01-15T14:48:19.239Z,-5.01
2019-01-15T14:51:04.719Z,-5.13
2019-01-15T14:53:49.552Z,-5.14
2019-01-15T14:56:36.749Z,-5.21
2019-01-15T14:59:28.937Z,-5.08
2019-01-15T15:02:28.227Z,-5.18
2019-01-15T15:05:21.842Z,-5.28
2019-01-15T15:08:11.873Z,-5.53
2019-01-15T15:10:57.232Z,-5.63
2019-01-15T15:13:51.714Z,-5.59
2019-01-15T15:16:56.934Z,-5.75
2019-01-15T15:19:49.969Z,-5.60
2019-01-15T15:22:39.858Z,-5.63
2019-01-15T15:25:34.661Z,-5.92
2019-01-15T15:28:28.019Z,-5.71
2019-01-15T15:31:24.263Z,-5.87
2019-01-15T15:34:14.360Z,-6.06
2019-01-15T15:37:01.563Z,-6.11
2019-01-15T15:39:47.022Z,-6.39
2019-01-15T15:42:43.465Z,-6.51
2019-01-15T15:45:42.755Z,-6.68
2019-01-15T15:48:35.870Z,-6.90
2019-01-15T15:51:16.653Z,-6.73
2019-01-15T15:54:15.824Z,-6.73
2019-01-15T15:57:06.401Z,-6.79
2019-01-15T15:59:58.120Z,-6.72
2019-01-15T16:02:50.530Z,-6.80
2019-01-15T16:05:50.122Z,-6.91
2019-01-15T16:08:45.678Z,-6.95
2019-01-15T16:11:31.257Z,-6.75
2019-01-15T16:14:16.808Z,-6.85
2019-01-15T16:16:57.093Z,-6.91
2019-01-15T16:19:43.400Z,-6.88
2019-01-15T16:22:40.016Z,-6.82
2019-01-15T16:25:28.492Z,-6.95
2019-01-15T16:28:24.990Z,-6.63
2019-01-15T16:31:07.362Z,-6.78
2019-01-15T16:33:54.130Z,-6.93
2019-01-15T16:36:40.570Z,-7.16
2019-01-15T16:39:27.944Z,-7.17
2019-01-15T16:42:24.381Z,-7.12
2019-01-15T16:45:11.743Z,-7.26
2019-01-15T16:47:54.782Z,-7.10
2019-01-15T16:50:41.012Z,-7.21
2019-01-15T16:53:28.812Z,-7.36
2019-01-15T16:56:14.932Z,-7.47
2019-01-15T16:58:54.726Z,-7.66
2019-01-15T17:01:41.020Z,-7.79
2019-01-15T17:04:17.187Z,-7.90
2019-01-15T17:07:19.809Z,-7.67
2019-01-15T17:10:10.069Z,-7.81
2019-01-15T17:12:57.526Z,-7.96
2019-01-15T17:15:37.417Z,-8.07
2019-01-15T17:18:27.072Z,-8.16
2019-01-15T17:21:12.790Z,-8.29
2019-01-15T17:24:15.518Z,-8.36
2019-01-15T17:26:52.091Z,-8.41
2019-01-15T17:29:39.561Z,-8.39
2019-01-15T17:32:32.969Z,-8.50
2019-01-15T17:35:20.659Z,-8.79
2019-01-15T17:38:08.036Z,-8.72
2019-01-15T17:40:53.938Z,-8.70
2019-01-15T17:43:41.685Z,-8.81
2019-01-15T17:46:30.248Z,-8.82
2019-01-15T17:49:17.647Z,-8.80
2019-01-15T17:52:05.401Z,-8.82
2019-01-15T17:55:11.052Z,-8.77
2019-01-15T17:57:57.018Z,-8.70
2019-01-15T18:00:43.088Z,-8.86
2019-01-15T18:03:30.440Z,-8.88
2019-01-15T18:06:16.402Z,-8.42
2019-01-15T18:09:06.566Z,-8.10
2019-01-15T18:11:52.513Z,-8.25
2019-01-15T18:14:52.011Z,-8.11
2019-01-15T18:17:51.246Z,-7.84
2019-01-15T18:20:26.376Z,-7.28
2019-01-15T18:23:13.692Z,-7.39
2019-01-15T18:25:53.120Z,-7.42
2019-01-15T18:28:31.246Z,-7.49
2019-01-15T18:31:16.829Z,-7.40
2019-01-15T18:33:57.571Z,-6.80
2019-01-15T18:36:44.954Z,-6.53
2019-01-15T18:39:41.191Z,-6.80
2019-01-15T18:42:25.343Z,-7.11
2019-01-15T18:45:04.829Z,-7.35
2019-01-15T18:47:50.979Z,-7.22
2019-01-15T18:50:36.955Z,-6.83
2019-01-15T18:53:27.274Z,-6.94
2019-01-15T18:56:13.863Z,-6.97
2019-01-15T18:58:59.941Z,-7.03
2019-01-15T19:01:49.695Z,-7.08
2019-01-15T19:04:39.927Z,-7.30
2019-01-15T19:07:27.456Z,-7.42
2019-01-15T19:10:20.995Z,-7.54
2019-01-15T19:13:07.232Z,-7.57
2019-01-15T19:15:53.453Z,-7.66
2019-01-15T19:18:40.078Z,-7.56
2019-01-15T19:21:27.433Z,-7.40
2019-01-15T19:24:13.605Z,-7.37
2019-01-15T19:27:03.298Z,-7.52
2019-01-15T19:30:05.777Z,-7.54
2019-01-15T19:32:58.948Z,-7.51
2019-01-15T19:35:58.642Z,-7.48
2019-01-15T19:38:46.285Z,-7.38
2019-01-15T19:41:33.412Z,-7.48
2019-01-15T19:44:19.422Z,-7.39
2019-01-15T19:47:10.616Z,-6.73
2019-01-15T19:49:57.085Z,-6.17
2019-01-15T19:52:44.646Z,-6.12
2019-01-15T19:55:50.364Z,-5.95
2019-01-15T19:58:43.411Z,-5.88
2019-01-15T20:01:29.496Z,-6.04
2019-01-15T20:04:22.859Z,-6.17
2019-01-15T20:07:25.403Z,-6.29
2019-01-15T20:10:24.930Z,-6.53
2019-01-15T20:13:30.576Z,-6.77
2019-01-15T20:16:30.039Z,-7.04
2019-01-15T20:19:18.684Z,-7.07
2019-01-15T20:22:04.699Z,-7.10
2019-01-15T20:24:50.903Z,-7.07
2019-01-15T20:27:33.494Z,-7.02
2019-01-15T20:30:19.388Z,-7.17
2019-01-15T20:33:18.730Z,-7.33
2019-01-15T20:36:15.199Z,-7.45
2019-01-15T20:38:54.957Z,-7.68
2019-01-15T20:41:47.847Z,-7.69
2019-01-15T20:44:37.969Z,-7.87
2019-01-15T20:47:40.598Z,-7.99
2019-01-15T20:50:27.615Z,-8.16
2019-01-15T20:53:11.749Z,-8.29
2019-01-15T20:56:05.310Z,-8.35
2019-01-15T20:58:55.163Z,-8.45
2019-01-15T21:01:42.511Z,-8.45
2019-01-15T21:04:29.855Z,-8.51
2019-01-15T21:07:15.738Z,-8.59
2019-01-15T21:10:01.361Z,-8.61
2019-01-15T21:12:49.626Z,-8.65
2019-01-15T21:15:40.013Z,-8.69
2019-01-15T21:18:30.706Z,-8.72
2019-01-15T21:21:29.944Z,-8.61
2019-01-15T21:24:25.717Z,-8.69
2019-01-15T21:27:05.314Z,-8.76
2019-01-15T21:29:52.404Z,-8.77
2019-01-15T21:32:38.129Z,-8.95
2019-01-15T21:35:37.588Z,-8.90
2019-01-15T21:38:33.679Z,-8.88
2019-01-15T21:41:19.375Z,-8.78
2019-01-15T21:44:04.881Z,-8.77
2019-01-15T21:46:50.398Z,-8.68
2019-01-15T21:49:43.340Z,-8.59
2019-01-15T21:52:47.839Z,-8.54
2019-01-15T21:55:40.802Z,-8.41
2019-01-15T21:58:21.343Z,-8.22
2019-01-15T22:01:07.142Z,-8.14
2019-01-15T22:03:52.380Z,-8.01
2019-01-15T22:06:54.348Z,-7.93
2019-01-15T22:09:50.651Z,-7.66
2019-01-15T22:12:40.290Z,-7.65
2019-01-15T22:15:37.296Z,-7.58
2019-01-15T22:18:26.931Z,-7.40
2019-01-15T22:21:14.013Z,-7.28
2019-01-15T22:23:53.593Z,-7.15
2019-01-15T22:26:39.514Z,-6.96
2019-01-15T22:29:29.693Z,-6.73
2019-01-15T22:32:22.613Z,-6.75
2019-01-15T22:35:09.772Z,-6.71
2019-01-15T22:38:02.616Z,-6.68
2019-01-15T22:40:42.292Z,-6.69
2019-01-15T22:43:36.319Z,-6.58
2019-01-15T22:46:35.564Z,-6.56
2019-01-15T22:49:40.937Z,-6.57
2019-01-15T22:52:26.703Z,-6.56
2019-01-15T22:55:05.402Z,-6.64
2019-01-15T22:57:52.459Z,-6.86
2019-01-15T23:00:57.578Z,-6.92
2019-01-15T23:03:43.257Z,-6.97
2019-01-15T23:06:28.717Z,-6.96
2019-01-15T23:09:18.422Z,-6.93
2019-01-15T23:12:08.003Z,-6.92
2019-01-15T23:14:45.406Z,-6.83
2019-01-15T23:17:31.657Z,-6.70
2019-01-15T23:20:17.219Z,-6.60
2019-01-15T23:23:02.589Z,-6.30
2019-01-15T23:26:01.416Z,-6.24
2019-01-15T23:28:55.559Z,-6.12
2019-01-15T23:31:46.711Z,-6.14
2019-01-15T23:34:28.807Z,-6.26
2019-01-15T23:37:18.643Z,-6.41
2019-01-15T23:40:05.757Z,-6.49
2019-01-15T23:42:50.023Z,-6.55
2019-01-15T23:45:37.070Z,-6.69
2019-01-15T23:48:30.445Z,-6.70
2019-01-15T23:51:22.320Z,-6.71
2019-01-15T23:54:07.909Z,-6.67
2019-01-15T23:57:06.738Z,-6.63
